sensor_id;sensor_type;location;lat;lon;timestamp;pressure;altitude;pressure_sealevel;temperature;humidity
62237;BME280;69163;48.778;2.308;2023-04-29T00:00:59;100898.30;;;18.32;36.37
62237;BME280;69163;48.778;2.308;2023-04-29T00:03:24;100894.55;;;18.07;36.41
62237;BME280;69163;48.778;2.308;2023-04-29T00:05:49;100892.32;;;18.16;36.30
62237;BME280;69163;48.778;2.308;2023-04-29T00:08:14;100890.77;;;18.15;36.30
62237;BME280;69163;48.778;2.308;2023-04-29T00:10:40;100888.51;;;18.14;36.30
62237;BME280;69163;48.778;2.308;2023-04-29T00:13:05;100885.14;;;18.02;36.44
62237;BME280;69163;48.778;2.308;2023-04-29T00:15:30;100883.12;;;18.06;36.38
62237;BME280;69163;48.778;2.308;2023-04-29T00:17:56;100883.82;;;18.31;36.36
62237;BME280;69163;48.778;2.308;2023-04-29T00:20:21;100887.86;;;18.12;36.33
62237;BME280;69163;48.778;2.308;2023-04-29T00:22:46;100892.82;;;18.18;36.23
62237;BME280;69163;48.778;2.308;2023-04-29T00:25:11;100895.01;;;17.92;36.23
62237;BME280;69163;48.778;2.308;2023-04-29T00:27:37;100891.74;;;18.09;36.30
62237;BME280;69163;48.778;2.308;2023-04-29T00:30:02;100886.75;;;18.06;36.33
62237;BME280;69163;48.778;2.308;2023-04-29T00:32:27;100883.90;;;17.99;36.41
62237;BME280;69163;48.778;2.308;2023-04-29T00:34:52;100883.66;;;18.33;36.31
62237;BME280;69163;48.778;2.308;2023-04-29T00:37:17;100883.12;;;18.56;36.29
62237;BME280;69163;48.778;2.308;2023-04-29T00:39:42;100880.00;;;18.07;36.30
62237;BME280;69163;48.778;2.308;2023-04-29T00:42:08;100879.64;;;18.08;36.27
62237;BME280;69163;48.778;2.308;2023-04-29T00:44:33;100878.98;;;18.02;36.33
62237;BME280;69163;48.778;2.308;2023-04-29T00:46:59;100878.61;;;18.24;36.33
62237;BME280;69163;48.778;2.308;2023-04-29T00:49:23;100879.94;;;17.93;36.43
62237;BME280;69163;48.778;2.308;2023-04-29T00:51:49;100876.87;;;17.75;36.36
62237;BME280;69163;48.778;2.308;2023-04-29T00:54:14;100873.58;;;18.00;36.34
62237;BME280;69163;48.778;2.308;2023-04-29T00:56:40;100877.42;;;17.98;36.36
62237;BME280;69163;48.778;2.308;2023-04-29T00:59:05;100881.80;;;18.19;36.37
62237;BME280;69163;48.778;2.308;2023-04-29T01:01:30;100880.96;;;18.29;36.29
62237;BME280;69163;48.778;2.308;2023-04-29T01:03:55;100879.64;;;18.25;36.33
62237;BME280;69163;48.778;2.308;2023-04-29T01:06:28;100875.86;;;18.00;36.32
62237;BME280;69163;48.778;2.308;2023-04-29T01:08:53;100876.89;;;18.01;36.28
62237;BME280;69163;48.778;2.308;2023-04-29T01:11:12;100883.37;;;18.00;36.30
62237;BME280;69163;48.778;2.308;2023-04-29T01:13:42;100882.08;;;17.98;36.31
62237;BME280;69163;48.778;2.308;2023-04-29T01:16:02;100876.88;;;18.45;36.34
62237;BME280;69163;48.778;2.308;2023-04-29T01:18:30;100876.48;;;18.44;36.33
62237;BME280;69163;48.778;2.308;2023-04-29T01:20:51;100876.78;;;18.21;36.31
62237;BME280;69163;48.778;2.308;2023-04-29T01:23:17;100880.12;;;17.98;36.30
62237;BME280;69163;48.778;2.308;2023-04-29T01:25:42;100880.05;;;17.94;36.34
62237;BME280;69163;48.778;2.308;2023-04-29T01:28:13;100881.56;;;17.88;36.42
62237;BME280;69163;48.778;2.308;2023-04-29T01:30:41;100885.41;;;17.89;36.39
62237;BME280;69163;48.778;2.308;2023-04-29T01:33:02;100885.66;;;18.13;36.37
62237;BME280;69163;48.778;2.308;2023-04-29T01:35:35;100883.95;;;18.13;36.37
62237;BME280;69163;48.778;2.308;2023-04-29T01:37:54;100883.48;;;17.94;36.32
62237;BME280;69163;48.778;2.308;2023-04-29T01:40:16;100876.51;;;17.91;36.33
62237;BME280;69163;48.778;2.308;2023-04-29T01:42:44;100871.62;;;18.06;36.19
62237;BME280;69163;48.778;2.308;2023-04-29T01:45:07;100869.12;;;18.20;36.29
62237;BME280;69163;48.778;2.308;2023-04-29T01:47:29;100866.02;;;18.12;36.36
62237;BME280;69163;48.778;2.308;2023-04-29T01:49:54;100867.50;;;18.16;36.32
62237;BME280;69163;48.778;2.308;2023-04-29T01:52:19;100869.68;;;17.88;36.38
62237;BME280;69163;48.778;2.308;2023-04-29T01:54:45;100868.27;;;17.93;36.30
62237;BME280;69163;48.778;2.308;2023-04-29T01:57:10;100865.14;;;17.90;36.32
62237;BME280;69163;48.778;2.308;2023-04-29T01:59:35;100862.03;;;17.98;36.24
62237;BME280;69163;48.778;2.308;2023-04-29T02:02:01;100859.70;;;18.13;36.30
62237;BME280;69163;48.778;2.308;2023-04-29T02:04:25;100858.57;;;18.17;36.27
62237;BME280;69163;48.778;2.308;2023-04-29T02:06:51;100859.35;;;17.94;36.27
62237;BME280;69163;48.778;2.308;2023-04-29T02:09:16;100857.03;;;17.98;36.20
62237;BME280;69163;48.778;2.308;2023-04-29T02:11:41;100855.95;;;17.45;36.24
62237;BME280;69163;48.778;2.308;2023-04-29T02:14:07;100857.92;;;17.94;36.24
62237;BME280;69163;48.778;2.308;2023-04-29T02:16:32;100861.89;;;17.82;36.36
62237;BME280;69163;48.778;2.308;2023-04-29T02:18:57;100869.65;;;17.89;36.31
62237;BME280;69163;48.778;2.308;2023-04-29T02:21:22;100874.11;;;18.08;36.31
62237;BME280;69163;48.778;2.308;2023-04-29T02:23:47;100874.77;;;18.11;36.29
62237;BME280;69163;48.778;2.308;2023-04-29T02:26:12;100878.37;;;17.79;36.37
62237;BME280;69163;48.778;2.308;2023-04-29T02:28:37;100876.64;;;17.81;36.35
62237;BME280;69163;48.778;2.308;2023-04-29T02:31:03;100875.05;;;17.77;36.39
62237;BME280;69163;48.778;2.308;2023-04-29T02:33:28;100872.61;;;18.01;36.36
62237;BME280;69163;48.778;2.308;2023-04-29T02:35:54;100871.18;;;17.84;36.31
62237;BME280;69163;48.778;2.308;2023-04-29T02:38:19;100874.00;;;17.88;36.26
62237;BME280;69163;48.778;2.308;2023-04-29T02:40:45;100876.13;;;18.42;36.19
62237;BME280;69163;48.778;2.308;2023-04-29T02:43:10;100877.97;;;17.93;36.17
62237;BME280;69163;48.778;2.308;2023-04-29T02:45:35;100880.62;;;18.09;36.22
62237;BME280;69163;48.778;2.308;2023-04-29T02:47:59;100878.33;;;17.97;36.10
62237;BME280;69163;48.778;2.308;2023-04-29T02:50:25;100875.09;;;17.99;36.10
62237;BME280;69163;48.778;2.308;2023-04-29T02:52:50;100876.30;;;17.93;36.14
62237;BME280;69163;48.778;2.308;2023-04-29T02:55:16;100880.02;;;18.00;36.05
62237;BME280;69163;48.778;2.308;2023-04-29T02:57:41;100880.42;;;18.05;36.24
62237;BME280;69163;48.778;2.308;2023-04-29T03:00:07;100881.56;;;18.46;36.05
62237;BME280;69163;48.778;2.308;2023-04-29T03:02:31;100882.00;;;18.18;36.09
62237;BME280;69163;48.778;2.308;2023-04-29T03:04:56;100881.79;;;17.96;36.08
62237;BME280;69163;48.778;2.308;2023-04-29T03:07:22;100883.74;;;18.04;36.00
62237;BME280;69163;48.778;2.308;2023-04-29T03:09:47;100884.62;;;17.95;36.06
62237;BME280;69163;48.778;2.308;2023-04-29T03:12:12;100883.11;;;17.81;36.21
62237;BME280;69163;48.778;2.308;2023-04-29T03:14:37;100884.07;;;18.09;36.17
62237;BME280;69163;48.778;2.308;2023-04-29T03:17:02;100884.41;;;17.97;36.03
62237;BME280;69163;48.778;2.308;2023-04-29T03:19:27;100889.86;;;17.90;36.10
62237;BME280;69163;48.778;2.308;2023-04-29T03:21:53;100890.41;;;18.03;35.96
62237;BME280;69163;48.778;2.308;2023-04-29T03:24:18;100894.08;;;17.87;36.11
62237;BME280;69163;48.778;2.308;2023-04-29T03:26:44;100897.01;;;18.05;36.17
62237;BME280;69163;48.778;2.308;2023-04-29T03:29:09;100901.08;;;17.98;35.99
62237;BME280;69163;48.778;2.308;2023-04-29T03:31:34;100901.14;;;18.15;36.05
62237;BME280;69163;48.778;2.308;2023-04-29T03:33:59;100899.84;;;18.22;35.98
62237;BME280;69163;48.778;2.308;2023-04-29T03:36:24;100904.70;;;18.25;35.96
62237;BME280;69163;48.778;2.308;2023-04-29T03:38:49;100905.10;;;17.92;36.03
62237;BME280;69163;48.778;2.308;2023-04-29T03:41:15;100898.39;;;18.24;35.93
62237;BME280;69163;48.778;2.308;2023-04-29T03:43:40;100900.16;;;17.98;35.94
62237;BME280;69163;48.778;2.308;2023-04-29T03:46:06;100900.80;;;17.80;35.88
62237;BME280;69163;48.778;2.308;2023-04-29T03:48:31;100900.74;;;17.95;35.99
62237;BME280;69163;48.778;2.308;2023-04-29T03:50:56;100901.20;;;18.26;35.88
62237;BME280;69163;48.778;2.308;2023-04-29T03:53:21;100904.65;;;18.14;36.02
62237;BME280;69163;48.778;2.308;2023-04-29T03:55:46;100909.57;;;17.92;36.00
62237;BME280;69163;48.778;2.308;2023-04-29T03:58:11;100909.61;;;18.02;35.88
62237;BME280;69163;48.778;2.308;2023-04-29T04:00:37;100912.29;;;17.91;35.99
62237;BME280;69163;48.778;2.308;2023-04-29T04:03:02;100915.50;;;18.28;36.09
62237;BME280;69163;48.778;2.308;2023-04-29T04:05:28;100919.35;;;17.83;36.09
62237;BME280;69163;48.778;2.308;2023-04-29T04:07:53;100917.65;;;18.15;35.97
62237;BME280;69163;48.778;2.308;2023-04-29T04:10:18;100919.55;;;18.28;35.84
62237;BME280;69163;48.778;2.308;2023-04-29T04:12:43;100919.79;;;17.94;35.92
62237;BME280;69163;48.778;2.308;2023-04-29T04:15:09;100917.93;;;18.02;36.10
62237;BME280;69163;48.778;2.308;2023-04-29T04:17:34;100919.55;;;17.92;35.97
62237;BME280;69163;48.778;2.308;2023-04-29T04:19:59;100920.72;;;17.87;36.02
62237;BME280;69163;48.778;2.308;2023-04-29T04:22:24;100920.43;;;18.12;35.98
62237;BME280;69163;48.778;2.308;2023-04-29T04:24:49;100926.15;;;18.15;35.95
62237;BME280;69163;48.778;2.308;2023-04-29T04:27:14;100924.46;;;17.78;35.83
62237;BME280;69163;48.778;2.308;2023-04-29T04:29:40;100924.75;;;18.04;35.80
62237;BME280;69163;48.778;2.308;2023-04-29T04:32:05;100923.93;;;17.95;35.89
62237;BME280;69163;48.778;2.308;2023-04-29T04:34:30;100929.53;;;18.00;35.84
62237;BME280;69163;48.778;2.308;2023-04-29T04:36:56;100929.62;;;18.59;35.71
62237;BME280;69163;48.778;2.308;2023-04-29T04:39:21;100933.23;;;18.23;35.84
62237;BME280;69163;48.778;2.308;2023-04-29T04:41:46;100937.77;;;18.20;35.87
62237;BME280;69163;48.778;2.308;2023-04-29T04:44:11;100938.01;;;17.92;35.87
62237;BME280;69163;48.778;2.308;2023-04-29T04:46:37;100941.87;;;18.02;35.77
62237;BME280;69163;48.778;2.308;2023-04-29T04:49:02;100947.15;;;18.19;35.84
62237;BME280;69163;48.778;2.308;2023-04-29T04:51:26;100952.35;;;18.15;35.88
62237;BME280;69163;48.778;2.308;2023-04-29T04:53:52;100951.42;;;18.02;35.75
62237;BME280;69163;48.778;2.308;2023-04-29T04:56:17;100958.03;;;17.98;35.81
62237;BME280;69163;48.778;2.308;2023-04-29T04:58:42;100960.77;;;17.85;35.94
62237;BME280;69163;48.778;2.308;2023-04-29T05:01:08;100963.47;;;17.99;35.77
62237;BME280;69163;48.778;2.308;2023-04-29T05:03:33;100967.14;;;18.05;35.71
62237;BME280;69163;48.778;2.308;2023-04-29T05:05:59;100972.79;;;18.06;35.69
62237;BME280;69163;48.778;2.308;2023-04-29T05:08:24;100977.99;;;18.25;35.75
62237;BME280;69163;48.778;2.308;2023-04-29T05:10:49;100981.16;;;18.22;35.77
62237;BME280;69163;48.778;2.308;2023-04-29T05:13:14;100984.71;;;18.01;35.75
62237;BME280;69163;48.778;2.308;2023-04-29T05:15:39;100988.42;;;18.07;35.67
62237;BME280;69163;48.778;2.308;2023-04-29T05:18:04;100989.56;;;18.07;35.64
62237;BME280;69163;48.778;2.308;2023-04-29T05:20:30;100988.80;;;18.08;35.63
62237;BME280;69163;48.778;2.308;2023-04-29T05:22:55;100993.28;;;18.10;35.62
62237;BME280;69163;48.778;2.308;2023-04-29T05:25:20;100998.17;;;18.53;35.67
62237;BME280;69163;48.778;2.308;2023-04-29T05:27:45;100998.57;;;18.16;35.54
62237;BME280;69163;48.778;2.308;2023-04-29T05:30:11;101002.89;;;18.13;35.57
62237;BME280;69163;48.778;2.308;2023-04-29T05:32:36;101010.00;;;18.07;35.61
62237;BME280;69163;48.778;2.308;2023-04-29T05:35:01;101013.33;;;18.09;35.59
62237;BME280;69163;48.778;2.308;2023-04-29T05:37:26;101015.75;;;17.98;35.69
62237;BME280;69163;48.778;2.308;2023-04-29T05:39:52;101018.52;;;18.06;35.62
62237;BME280;69163;48.778;2.308;2023-04-29T05:42:17;101026.17;;;18.33;35.60
62237;BME280;69163;48.778;2.308;2023-04-29T05:44:42;101024.50;;;18.26;35.67
62237;BME280;69163;48.778;2.308;2023-04-29T05:47:07;101028.28;;;18.24;35.67
62237;BME280;69163;48.778;2.308;2023-04-29T05:49:32;101029.36;;;17.98;35.68
62237;BME280;69163;48.778;2.308;2023-04-29T05:51:58;101031.76;;;18.25;35.67
62237;BME280;69163;48.778;2.308;2023-04-29T05:54:23;101034.14;;;18.06;35.64
62237;BME280;69163;48.778;2.308;2023-04-29T05:56:48;101035.69;;;18.01;35.65
62237;BME280;69163;48.778;2.308;2023-04-29T05:59:13;101039.80;;;18.53;35.62
62237;BME280;69163;48.778;2.308;2023-04-29T06:01:38;101036.22;;;18.27;35.64
62237;BME280;69163;48.778;2.308;2023-04-29T06:04:04;101038.12;;;18.01;35.65
62237;BME280;69163;48.778;2.308;2023-04-29T06:06:29;101044.05;;;18.12;35.54
62237;BME280;69163;48.778;2.308;2023-04-29T06:08:54;101044.77;;;18.22;35.68
62237;BME280;69163;48.778;2.308;2023-04-29T06:11:20;101049.39;;;18.02;35.64
62237;BME280;69163;48.778;2.308;2023-04-29T06:13:45;101049.31;;;18.08;35.58
62237;BME280;69163;48.778;2.308;2023-04-29T06:16:11;101052.29;;;18.59;35.52
62237;BME280;69163;48.778;2.308;2023-04-29T06:18:35;101052.80;;;18.03;35.60
62237;BME280;69163;48.778;2.308;2023-04-29T06:21:00;101054.33;;;18.14;35.49
62237;BME280;69163;48.778;2.308;2023-04-29T06:23:26;101053.30;;;18.06;35.56
62237;BME280;69163;48.778;2.308;2023-04-29T06:25:51;101054.97;;;18.27;35.60
62237;BME280;69163;48.778;2.308;2023-04-29T06:28:16;101057.84;;;18.33;35.52
62237;BME280;69163;48.778;2.308;2023-04-29T06:30:41;101060.92;;;17.99;35.62
62237;BME280;69163;48.778;2.308;2023-04-29T06:33:06;101061.03;;;18.33;35.53
62237;BME280;69163;48.778;2.308;2023-04-29T06:35:31;101062.81;;;18.16;35.44
62237;BME280;69163;48.778;2.308;2023-04-29T06:37:57;101062.31;;;18.10;35.49
62237;BME280;69163;48.778;2.308;2023-04-29T06:40:22;101064.24;;;18.04;35.55
62237;BME280;69163;48.778;2.308;2023-04-29T06:42:48;101064.41;;;18.21;35.62
62237;BME280;69163;48.778;2.308;2023-04-29T06:45:13;101066.19;;;18.29;35.54
62237;BME280;69163;48.778;2.308;2023-04-29T06:47:38;101067.09;;;18.06;35.53
62237;BME280;69163;48.778;2.308;2023-04-29T06:50:03;101069.29;;;18.10;35.48
62237;BME280;69163;48.778;2.308;2023-04-29T06:52:28;101072.77;;;18.02;35.52
62237;BME280;69163;48.778;2.308;2023-04-29T06:54:54;101072.33;;;17.98;35.59
62237;BME280;69163;48.778;2.308;2023-04-29T06:57:19;101073.72;;;18.09;35.48
62237;BME280;69163;48.778;2.308;2023-04-29T06:59:44;101072.08;;;18.08;35.47
62237;BME280;69163;48.778;2.308;2023-04-29T07:02:10;101074.54;;;18.14;35.38
62237;BME280;69163;48.778;2.308;2023-04-29T07:04:34;101076.69;;;18.25;35.53
62237;BME280;69163;48.778;2.308;2023-04-29T07:07:00;101080.26;;;18.17;35.37
62237;BME280;69163;48.778;2.308;2023-04-29T07:09:25;101083.64;;;18.12;35.41
62237;BME280;69163;48.778;2.308;2023-04-29T07:11:50;101087.59;;;18.00;35.54
62237;BME280;69163;48.778;2.308;2023-04-29T07:14:16;101090.78;;;18.34;35.43
62237;BME280;69163;48.778;2.308;2023-04-29T07:16:40;101095.56;;;18.19;35.59
62237;BME280;69163;48.778;2.308;2023-04-29T07:19:06;101094.81;;;18.34;35.43
62237;BME280;69163;48.778;2.308;2023-04-29T07:21:31;101096.36;;;18.10;35.42
62237;BME280;69163;48.778;2.308;2023-04-29T07:23:57;101102.18;;;17.98;35.56
62237;BME280;69163;48.778;2.308;2023-04-29T07:26:22;101101.11;;;18.09;35.43
62237;BME280;69163;48.778;2.308;2023-04-29T07:28:47;101103.46;;;18.04;35.46
62237;BME280;69163;48.778;2.308;2023-04-29T07:31:12;101102.83;;;18.02;35.46
62237;BME280;69163;48.778;2.308;2023-04-29T07:33:37;101106.65;;;18.34;35.39
62237;BME280;69163;48.778;2.308;2023-04-29T07:36:03;101110.20;;;18.05;35.45
62237;BME280;69163;48.778;2.308;2023-04-29T07:38:28;101113.78;;;17.85;35.68
62237;BME280;69163;48.778;2.308;2023-04-29T07:40:53;101116.34;;;17.98;35.55
62237;BME280;69163;48.778;2.308;2023-04-29T07:43:19;101115.11;;;17.99;35.52
62237;BME280;69163;48.778;2.308;2023-04-29T07:45:44;101113.60;;;18.07;35.43
62237;BME280;69163;48.778;2.308;2023-04-29T07:48:09;101113.83;;;18.04;35.48
62237;BME280;69163;48.778;2.308;2023-04-29T07:50:34;101119.00;;;18.05;35.46
62237;BME280;69163;48.778;2.308;2023-04-29T07:52:59;101119.18;;;18.07;35.45
62237;BME280;69163;48.778;2.308;2023-04-29T07:55:24;101121.64;;;18.01;35.49
62237;BME280;69163;48.778;2.308;2023-04-29T07:57:51;101123.74;;;18.01;35.50
62237;BME280;69163;48.778;2.308;2023-04-29T08:00:15;101124.24;;;18.05;35.47
62237;BME280;69163;48.778;2.308;2023-04-29T08:02:41;101125.40;;;18.08;35.42
62237;BME280;69163;48.778;2.308;2023-04-29T08:05:06;101126.71;;;18.11;35.39
62237;BME280;69163;48.778;2.308;2023-04-29T08:07:31;101126.77;;;18.10;35.39
62237;BME280;69163;48.778;2.308;2023-04-29T08:09:56;101124.30;;;18.28;35.46
62237;BME280;69163;48.778;2.308;2023-04-29T08:12:21;101124.30;;;18.54;35.42
62237;BME280;69163;48.778;2.308;2023-04-29T08:14:46;101126.47;;;18.11;35.39
62237;BME280;69163;48.778;2.308;2023-04-29T08:17:12;101131.88;;;18.11;35.40
62237;BME280;69163;48.778;2.308;2023-04-29T08:19:37;101131.92;;;18.05;35.44
62237;BME280;69163;48.778;2.308;2023-04-29T08:22:03;101128.89;;;18.04;35.47
62237;BME280;69163;48.778;2.308;2023-04-29T08:24:28;101128.03;;;18.31;35.40
62237;BME280;69163;48.778;2.308;2023-04-29T08:26:53;101135.14;;;18.39;35.31
62237;BME280;69163;48.778;2.308;2023-04-29T08:29:18;101138.35;;;18.16;35.32
62237;BME280;69163;48.778;2.308;2023-04-29T08:31:44;101140.40;;;18.13;35.38
62237;BME280;69163;48.778;2.308;2023-04-29T08:34:09;101140.49;;;18.13;35.35
62237;BME280;69163;48.778;2.308;2023-04-29T08:36:34;101139.62;;;18.40;35.31
62237;BME280;69163;48.778;2.308;2023-04-29T08:38:59;101136.87;;;18.44;35.26
62237;BME280;69163;48.778;2.308;2023-04-29T08:41:24;101138.07;;;17.93;35.28
62237;BME280;69163;48.778;2.308;2023-04-29T08:43:50;101145.43;;;18.29;35.16
62237;BME280;69163;48.778;2.308;2023-04-29T08:46:15;101147.56;;;18.22;35.21
62237;BME280;69163;48.778;2.308;2023-04-29T08:48:41;101148.29;;;18.31;35.13
62237;BME280;69163;48.778;2.308;2023-04-29T08:51:06;101147.05;;;18.55;35.13
62237;BME280;69163;48.778;2.308;2023-04-29T08:53:31;101146.34;;;18.50;35.19
62237;BME280;69163;48.778;2.308;2023-04-29T08:55:58;101150.19;;;18.31;35.10
62237;BME280;69163;48.778;2.308;2023-04-29T08:58:21;101148.83;;;18.19;35.21
62237;BME280;69163;48.778;2.308;2023-04-29T09:00:47;101149.21;;;18.04;35.38
62237;BME280;69163;48.778;2.308;2023-04-29T09:03:16;101152.05;;;18.37;35.31
62237;BME280;69163;48.778;2.308;2023-04-29T09:05:37;101151.63;;;18.60;35.30
62237;BME280;69163;48.778;2.308;2023-04-29T09:08:03;101148.49;;;18.12;35.30
62237;BME280;69163;48.778;2.308;2023-04-29T09:10:27;101152.52;;;18.13;35.29
62237;BME280;69163;48.778;2.308;2023-04-29T09:12:55;101154.17;;;18.27;35.13
62237;BME280;69163;48.778;2.308;2023-04-29T09:15:19;101155.58;;;18.44;35.20
62237;BME280;69163;48.778;2.308;2023-04-29T09:17:45;101159.07;;;18.17;35.21
62237;BME280;69163;48.778;2.308;2023-04-29T09:22:46;101161.37;;;18.17;35.21
62237;BME280;69163;48.778;2.308;2023-04-29T09:27:26;101167.52;;;18.23;35.17
62237;BME280;69163;48.778;2.308;2023-04-29T09:29:59;101168.50;;;18.29;35.09
62237;BME280;69163;48.778;2.308;2023-04-29T09:32:18;101171.08;;;18.32;35.05
62237;BME280;69163;48.778;2.308;2023-04-29T09:34:40;101168.96;;;18.24;35.12
62237;BME280;69163;48.778;2.308;2023-04-29T09:37:22;101170.68;;;18.31;35.06
62237;BME280;69163;48.778;2.308;2023-04-29T09:39:37;101170.15;;;18.21;35.13
62237;BME280;69163;48.778;2.308;2023-04-29T09:41:59;101170.24;;;18.45;35.15
62237;BME280;69163;48.778;2.308;2023-04-29T09:44:22;101169.27;;;18.55;35.04
62237;BME280;69163;48.778;2.308;2023-04-29T09:46:54;101169.99;;;18.27;35.08
62237;BME280;69163;48.778;2.308;2023-04-29T09:49:21;101169.89;;;18.20;35.15
62237;BME280;69163;48.778;2.308;2023-04-29T09:54:10;101174.50;;;17.98;35.12
62237;BME280;69163;48.778;2.308;2023-04-29T09:56:27;101177.02;;;18.30;35.03
62237;BME280;69163;48.778;2.308;2023-04-29T09:58:53;101176.98;;;18.75;35.06
62237;BME280;69163;48.778;2.308;2023-04-29T10:01:19;101178.17;;;18.67;35.13
62237;BME280;69163;48.778;2.308;2023-04-29T10:03:44;101178.64;;;18.47;35.10
62237;BME280;69163;48.778;2.308;2023-04-29T10:06:08;101177.69;;;18.17;35.15
62237;BME280;69163;48.778;2.308;2023-04-29T10:08:34;101177.90;;;18.30;35.04
62237;BME280;69163;48.778;2.308;2023-04-29T10:11:00;101173.58;;;18.28;35.04
62237;BME280;69163;48.778;2.308;2023-04-29T10:13:24;101175.95;;;18.27;35.05
62237;BME280;69163;48.778;2.308;2023-04-29T10:15:56;101174.55;;;18.54;35.01
62237;BME280;69163;48.778;2.308;2023-04-29T10:18:19;101174.23;;;18.48;35.05
62237;BME280;69163;48.778;2.308;2023-04-29T10:20:40;101171.48;;;18.23;35.06
62237;BME280;69163;48.778;2.308;2023-04-29T10:23:05;101169.06;;;18.27;35.02
62237;BME280;69163;48.778;2.308;2023-04-29T10:25:30;101168.79;;;18.55;34.95
62237;BME280;69163;48.778;2.308;2023-04-29T10:27:56;101172.29;;;18.29;35.02
62237;BME280;69163;48.778;2.308;2023-04-29T10:30:21;101168.45;;;18.36;34.92
62237;BME280;69163;48.778;2.308;2023-04-29T10:32:46;101168.20;;;18.39;34.88
62237;BME280;69163;48.778;2.308;2023-04-29T10:35:13;101169.37;;;18.41;34.84
62237;BME280;69163;48.778;2.308;2023-04-29T10:37:37;101170.87;;;18.46;34.78
62237;BME280;69163;48.778;2.308;2023-04-29T10:40:11;101176.43;;;18.41;34.84
62237;BME280;69163;48.778;2.308;2023-04-29T10:42:35;101178.20;;;18.46;34.79
62237;BME280;69163;48.778;2.308;2023-04-29T10:47:18;101183.06;;;18.34;34.90
62237;BME280;69163;48.778;2.308;2023-04-29T10:52:14;101181.90;;;18.51;34.96
62237;BME280;69163;48.778;2.308;2023-04-29T10:54:34;101179.58;;;18.61;34.88
62237;BME280;69163;48.778;2.308;2023-04-29T10:56:59;101179.65;;;18.61;34.85
62237;BME280;69163;48.778;2.308;2023-04-29T11:01:50;101180.26;;;18.42;34.77
62237;BME280;69163;48.778;2.308;2023-04-29T11:04:15;101181.32;;;18.37;34.81
62237;BME280;69163;48.778;2.308;2023-04-29T11:06:43;101183.33;;;18.61;34.80
62237;BME280;69163;48.778;2.308;2023-04-29T11:09:08;101183.60;;;18.71;34.70
62237;BME280;69163;48.778;2.308;2023-04-29T11:11:41;101184.96;;;18.42;34.75
62237;BME280;69163;48.778;2.308;2023-04-29T11:13:56;101185.06;;;18.80;34.59
62237;BME280;69163;48.778;2.308;2023-04-29T11:16:25;101183.62;;;18.54;34.59
62237;BME280;69163;48.778;2.308;2023-04-29T11:19:05;101187.96;;;18.49;34.62
62237;BME280;69163;48.778;2.308;2023-04-29T11:21:12;101190.70;;;18.50;34.62
62237;BME280;69163;48.778;2.308;2023-04-29T11:23:38;101189.51;;;18.95;34.66
62237;BME280;69163;48.778;2.308;2023-04-29T11:26:02;101193.44;;;18.51;34.60
62237;BME280;69163;48.778;2.308;2023-04-29T11:28:30;101194.22;;;18.51;34.59
62237;BME280;69163;48.778;2.308;2023-04-29T11:30:52;101195.40;;;18.57;34.50
62237;BME280;69163;48.778;2.308;2023-04-29T11:33:19;101199.42;;;18.56;34.51
62237;BME280;69163;48.778;2.308;2023-04-29T11:35:43;101199.41;;;18.68;34.64
62237;BME280;69163;48.778;2.308;2023-04-29T11:38:08;101196.01;;;18.49;34.57
62237;BME280;69163;48.778;2.308;2023-04-29T11:40:33;101191.25;;;18.46;34.61
62237;BME280;69163;48.778;2.308;2023-04-29T11:42:58;101193.49;;;18.45;34.60
62237;BME280;69163;48.778;2.308;2023-04-29T11:45:24;101195.87;;;18.51;34.53
62237;BME280;69163;48.778;2.308;2023-04-29T11:47:49;101196.11;;;18.45;34.59
62237;BME280;69163;48.778;2.308;2023-04-29T11:50:16;101193.48;;;18.68;34.59
62237;BME280;69163;48.778;2.308;2023-04-29T11:52:41;101193.38;;;18.77;34.48
62237;BME280;69163;48.778;2.308;2023-04-29T11:55:07;101189.89;;;18.80;34.45
62237;BME280;69163;48.778;2.308;2023-04-29T11:57:31;101186.99;;;18.60;34.39
62237;BME280;69163;48.778;2.308;2023-04-29T11:59:56;101184.73;;;18.54;34.44
62237;BME280;69163;48.778;2.308;2023-04-29T12:02:22;101183.79;;;18.47;34.49
62237;BME280;69163;48.778;2.308;2023-04-29T12:04:48;101182.32;;;18.44;34.53
62237;BME280;69163;48.778;2.308;2023-04-29T12:07:14;101183.95;;;18.53;34.43
62237;BME280;69163;48.778;2.308;2023-04-29T12:09:41;101186.86;;;18.82;34.38
62237;BME280;69163;48.778;2.308;2023-04-29T12:12:03;101186.83;;;18.79;34.42
62237;BME280;69163;48.778;2.308;2023-04-29T12:14:28;101185.50;;;18.48;34.47
62237;BME280;69163;48.778;2.308;2023-04-29T12:16:53;101182.05;;;18.58;34.35
62237;BME280;69163;48.778;2.308;2023-04-29T12:19:18;101179.12;;;18.60;34.32
62237;BME280;69163;48.778;2.308;2023-04-29T12:21:48;101179.26;;;18.58;34.32
62237;BME280;69163;48.778;2.308;2023-04-29T12:24:11;101178.98;;;18.60;34.29
62237;BME280;69163;48.778;2.308;2023-04-29T12:26:39;101180.71;;;18.77;34.37
62237;BME280;69163;48.778;2.308;2023-04-29T12:29:01;101183.07;;;18.37;34.27
62237;BME280;69163;48.778;2.308;2023-04-29T12:31:31;101181.12;;;18.58;34.30
62237;BME280;69163;48.778;2.308;2023-04-29T12:33:53;101179.13;;;18.57;34.30
62237;BME280;69163;48.778;2.308;2023-04-29T12:36:17;101179.96;;;18.57;34.28
62237;BME280;69163;48.778;2.308;2023-04-29T12:38:42;101183.11;;;18.57;34.29
62237;BME280;69163;48.778;2.308;2023-04-29T12:41:07;101183.18;;;18.53;34.32
62237;BME280;69163;48.778;2.308;2023-04-29T12:43:33;101183.73;;;18.54;34.31
62237;BME280;69163;48.778;2.308;2023-04-29T12:46:01;101186.88;;;18.54;34.31
62237;BME280;69163;48.778;2.308;2023-04-29T12:48:28;101188.94;;;18.61;34.24
62237;BME280;69163;48.778;2.308;2023-04-29T12:50:49;101181.13;;;18.64;34.17
62237;BME280;69163;48.778;2.308;2023-04-29T12:53:14;101186.92;;;18.88;34.17